sensor_id;sensor_type;location;lat;lon;timestamp;temperature;humidity
58993;DHT22;44782;0.000;0.000;2022-11-15T00:00:33;15.90;66.60
58993;DHT22;44782;0.000;0.000;2022-11-15T00:02:49;15.90;66.50
58993;DHT22;44782;0.000;0.000;2022-11-15T00:05:04;15.90;66.50
58993;DHT22;44782;0.000;0.000;2022-11-15T00:07:20;15.80;66.50
58993;DHT22;44782;0.000;0.000;2022-11-15T00:09:36;15.80;66.50
58993;DHT22;44782;0.000;0.000;2022-11-15T00:11:51;15.80;66.50
58993;DHT22;44782;0.000;0.000;2022-11-15T00:14:07;15.80;66.50
58993;DHT22;44782;0.000;0.000;2022-11-15T00:16:23;15.80;66.50
58993;DHT22;44782;0.000;0.000;2022-11-15T00:18:39;15.80;66.50
58993;DHT22;44782;0.000;0.000;2022-11-15T00:20:56;15.80;66.40
58993;DHT22;44782;0.000;0.000;2022-11-15T00:23:12;15.80;66.40
58993;DHT22;44782;0.000;0.000;2022-11-15T00:25:27;15.80;66.50
58993;DHT22;44782;0.000;0.000;2022-11-15T00:27:43;15.80;66.40
58993;DHT22;44782;0.000;0.000;2022-11-15T00:29:59;15.80;66.40
58993;DHT22;44782;0.000;0.000;2022-11-15T00:32:15;15.80;66.40
58993;DHT22;44782;0.000;0.000;2022-11-15T00:34:30;15.80;66.40
58993;DHT22;44782;0.000;0.000;2022-11-15T00:36:46;15.70;66.30
58993;DHT22;44782;0.000;0.000;2022-11-15T00:39:04;15.70;66.30
58993;DHT22;44782;0.000;0.000;2022-11-15T00:41:21;15.70;66.30
58993;DHT22;44782;0.000;0.000;2022-11-15T00:43:36;15.70;66.40
58993;DHT22;44782;0.000;0.000;2022-11-15T00:45:52;15.70;66.30
58993;DHT22;44782;0.000;0.000;2022-11-15T00:48:08;15.70;66.30
58993;DHT22;44782;0.000;0.000;2022-11-15T00:50:24;15.70;67.10
58993;DHT22;44782;0.000;0.000;2022-11-15T00:52:40;15.70;66.30
58993;DHT22;44782;0.000;0.000;2022-11-15T00:54:55;15.70;66.30
58993;DHT22;44782;0.000;0.000;2022-11-15T00:57:11;15.70;66.30
58993;DHT22;44782;0.000;0.000;2022-11-15T00:59:26;15.70;66.30
58993;DHT22;44782;0.000;0.000;2022-11-15T01:01:42;15.70;66.30
58993;DHT22;44782;0.000;0.000;2022-11-15T01:03:57;15.70;66.30
58993;DHT22;44782;0.000;0.000;2022-11-15T01:06:13;15.70;66.30
58993;DHT22;44782;0.000;0.000;2022-11-15T01:08:29;15.60;66.20
58993;DHT22;44782;0.000;0.000;2022-11-15T01:10:44;15.70;66.30
58993;DHT22;44782;0.000;0.000;2022-11-15T01:13:00;15.60;66.20
58993;DHT22;44782;0.000;0.000;2022-11-15T01:15:16;15.60;66.20
58993;DHT22;44782;0.000;0.000;2022-11-15T01:17:31;15.60;66.20
58993;DHT22;44782;0.000;0.000;2022-11-15T01:19:47;15.60;66.20
58993;DHT22;44782;0.000;0.000;2022-11-15T01:22:02;15.60;66.20
58993;DHT22;44782;0.000;0.000;2022-11-15T01:24:18;15.60;66.20
58993;DHT22;44782;0.000;0.000;2022-11-15T01:26:34;15.60;66.20
58993;DHT22;44782;0.000;0.000;2022-11-15T01:28:50;15.60;66.20
58993;DHT22;44782;0.000;0.000;2022-11-15T01:31:13;15.60;66.20
58993;DHT22;44782;0.000;0.000;2022-11-15T01:33:29;15.60;66.10
58993;DHT22;44782;0.000;0.000;2022-11-15T01:35:45;15.60;66.20
58993;DHT22;44782;0.000;0.000;2022-11-15T01:38:00;15.60;66.20
58993;DHT22;44782;0.000;0.000;2022-11-15T01:40:16;15.60;66.20
58993;DHT22;44782;0.000;0.000;2022-11-15T01:42:32;15.60;66.20
58993;DHT22;44782;0.000;0.000;2022-11-15T01:44:49;15.60;66.20
58993;DHT22;44782;0.000;0.000;2022-11-15T01:47:11;15.60;66.10
58993;DHT22;44782;0.000;0.000;2022-11-15T01:49:30;15.60;66.10
58993;DHT22;44782;0.000;0.000;2022-11-15T01:51:47;15.60;66.10
58993;DHT22;44782;0.000;0.000;2022-11-15T01:54:10;15.60;66.10
58993;DHT22;44782;0.000;0.000;2022-11-15T01:56:30;15.60;66.00
58993;DHT22;44782;0.000;0.000;2022-11-15T01:58:47;15.60;66.00
58993;DHT22;44782;0.000;0.000;2022-11-15T02:01:03;15.60;66.00
58993;DHT22;44782;0.000;0.000;2022-11-15T02:03:20;15.60;65.90
58993;DHT22;44782;0.000;0.000;2022-11-15T02:05:38;15.70;66.00
58993;DHT22;44782;0.000;0.000;2022-11-15T02:07:55;15.70;65.90
58993;DHT22;44782;0.000;0.000;2022-11-15T02:10:16;15.60;65.80
58993;DHT22;44782;0.000;0.000;2022-11-15T02:12:32;15.70;65.80
58993;DHT22;44782;0.000;0.000;2022-11-15T02:14:52;15.70;65.80
58993;DHT22;44782;0.000;0.000;2022-11-15T02:17:28;15.70;65.70
58993;DHT22;44782;0.000;0.000;2022-11-15T02:20:28;15.70;65.70
58993;DHT22;44782;0.000;0.000;2022-11-15T02:23:14;15.70;65.60
58993;DHT22;44782;0.000;0.000;2022-11-15T02:28:23;15.70;65.60
58993;DHT22;44782;0.000;0.000;2022-11-15T02:38:07;15.80;65.50
58993;DHT22;44782;0.000;0.000;2022-11-15T02:42:47;15.70;65.50
58993;DHT22;44782;0.000;0.000;2022-11-15T02:45:28;15.80;65.50
58993;DHT22;44782;0.000;0.000;2022-11-15T02:47:47;15.70;65.50
58993;DHT22;44782;0.000;0.000;2022-11-15T02:50:09;15.70;65.50
58993;DHT22;44782;0.000;0.000;2022-11-15T02:52:25;15.80;65.50
58993;DHT22;44782;0.000;0.000;2022-11-15T02:54:41;15.70;65.50
58993;DHT22;44782;0.000;0.000;2022-11-15T02:57:14;15.70;65.40
58993;DHT22;44782;0.000;0.000;2022-11-15T02:59:46;15.70;65.20
58993;DHT22;44782;0.000;0.000;2022-11-15T03:05:15;15.70;65.30
58993;DHT22;44782;0.000;0.000;2022-11-15T03:12:46;15.70;65.30
58993;DHT22;44782;0.000;0.000;2022-11-15T03:15:28;15.70;65.20
58993;DHT22;44782;0.000;0.000;2022-11-15T03:17:51;15.70;65.30
58993;DHT22;44782;0.000;0.000;2022-11-15T03:20:11;15.70;65.40
58993;DHT22;44782;0.000;0.000;2022-11-15T03:22:29;15.70;65.40
58993;DHT22;44782;0.000;0.000;2022-11-15T03:24:53;15.70;65.50
58993;DHT22;44782;0.000;0.000;2022-11-15T03:27:13;15.70;65.50
58993;DHT22;44782;0.000;0.000;2022-11-15T03:29:37;15.70;65.40
58993;DHT22;44782;0.000;0.000;2022-11-15T03:32:00;15.60;65.30
58993;DHT22;44782;0.000;0.000;2022-11-15T03:34:31;15.70;65.40
58993;DHT22;44782;0.000;0.000;2022-11-15T03:36:47;15.70;65.30
58993;DHT22;44782;0.000;0.000;2022-11-15T03:39:06;15.60;65.40
58993;DHT22;44782;0.000;0.000;2022-11-15T03:41:47;15.60;65.40
58993;DHT22;44782;0.000;0.000;2022-11-15T03:46:44;15.70;65.30
58993;DHT22;44782;0.000;0.000;2022-11-15T03:49:12;15.60;65.30
58993;DHT22;44782;0.000;0.000;2022-11-15T03:51:29;15.60;65.30
58993;DHT22;44782;0.000;0.000;2022-11-15T03:53:45;15.60;65.40
58993;DHT22;44782;0.000;0.000;2022-11-15T03:56:01;15.60;65.40
58993;DHT22;44782;0.000;0.000;2022-11-15T03:58:17;15.60;65.40
58993;DHT22;44782;0.000;0.000;2022-11-15T04:00:32;15.60;65.40
58993;DHT22;44782;0.000;0.000;2022-11-15T04:02:48;15.60;65.50
58993;DHT22;44782;0.000;0.000;2022-11-15T04:05:04;15.60;65.30
58993;DHT22;44782;0.000;0.000;2022-11-15T04:07:20;15.60;65.30
58993;DHT22;44782;0.000;0.000;2022-11-15T04:09:35;15.60;65.30
58993;DHT22;44782;0.000;0.000;2022-11-15T04:12:11;15.60;65.30
58993;DHT22;44782;0.000;0.000;2022-11-15T04:14:26;15.60;65.40
58993;DHT22;44782;0.000;0.000;2022-11-15T04:16:42;15.60;65.40
58993;DHT22;44782;0.000;0.000;2022-11-15T04:18:57;15.60;65.30
58993;DHT22;44782;0.000;0.000;2022-11-15T04:21:32;15.50;65.30
58993;DHT22;44782;0.000;0.000;2022-11-15T04:24:06;15.50;65.30
58993;DHT22;44782;0.000;0.000;2022-11-15T04:26:28;15.50;65.30
58993;DHT22;44782;0.000;0.000;2022-11-15T04:28:44;15.50;65.30
58993;DHT22;44782;0.000;0.000;2022-11-15T04:31:18;15.50;65.30
58993;DHT22;44782;0.000;0.000;2022-11-15T04:33:33;15.50;65.80
58993;DHT22;44782;0.000;0.000;2022-11-15T04:35:49;15.50;65.40
58993;DHT22;44782;0.000;0.000;2022-11-15T04:38:23;15.50;65.30
58993;DHT22;44782;0.000;0.000;2022-11-15T04:40:39;15.50;65.30
58993;DHT22;44782;0.000;0.000;2022-11-15T04:42:54;15.50;65.30
58993;DHT22;44782;0.000;0.000;2022-11-15T04:45:10;15.50;65.30
58993;DHT22;44782;0.000;0.000;2022-11-15T04:47:26;15.50;65.30
58993;DHT22;44782;0.000;0.000;2022-11-15T04:49:43;15.50;65.30
58993;DHT22;44782;0.000;0.000;2022-11-15T04:51:59;15.50;65.30
58993;DHT22;44782;0.000;0.000;2022-11-15T04:54:15;15.50;65.30
58993;DHT22;44782;0.000;0.000;2022-11-15T04:56:30;15.50;65.30
58993;DHT22;44782;0.000;0.000;2022-11-15T04:58:49;15.40;65.20
58993;DHT22;44782;0.000;0.000;2022-11-15T05:01:09;15.40;65.20
58993;DHT22;44782;0.000;0.000;2022-11-15T05:03:24;15.40;65.20
58993;DHT22;44782;0.000;0.000;2022-11-15T05:05:59;15.40;65.20
58993;DHT22;44782;0.000;0.000;2022-11-15T05:08:14;15.50;65.20
58993;DHT22;44782;0.000;0.000;2022-11-15T05:10:30;15.40;65.20
58993;DHT22;44782;0.000;0.000;2022-11-15T05:12:46;15.50;65.30
58993;DHT22;44782;0.000;0.000;2022-11-15T05:15:02;15.50;65.20
58993;DHT22;44782;0.000;0.000;2022-11-15T05:17:18;15.50;65.20
58993;DHT22;44782;0.000;0.000;2022-11-15T05:19:33;15.50;65.20
58993;DHT22;44782;0.000;0.000;2022-11-15T05:21:49;15.50;65.10
58993;DHT22;44782;0.000;0.000;2022-11-15T05:24:05;15.50;65.10
58993;DHT22;44782;0.000;0.000;2022-11-15T05:26:21;15.60;65.10
58993;DHT22;44782;0.000;0.000;2022-11-15T05:28:37;15.50;65.00
58993;DHT22;44782;0.000;0.000;2022-11-15T05:30:53;15.60;65.00
58993;DHT22;44782;0.000;0.000;2022-11-15T05:33:08;15.60;65.00
58993;DHT22;44782;0.000;0.000;2022-11-15T05:35:38;15.60;65.00
58993;DHT22;44782;0.000;0.000;2022-11-15T05:37:55;15.60;64.80
58993;DHT22;44782;0.000;0.000;2022-11-15T05:40:10;15.60;64.90
58993;DHT22;44782;0.000;0.000;2022-11-15T05:42:26;15.60;64.80
58993;DHT22;44782;0.000;0.000;2022-11-15T05:44:47;15.60;64.80
58993;DHT22;44782;0.000;0.000;2022-11-15T05:47:03;15.60;64.80
58993;DHT22;44782;0.000;0.000;2022-11-15T05:49:24;15.60;64.80
58993;DHT22;44782;0.000;0.000;2022-11-15T05:51:41;15.60;64.70
58993;DHT22;44782;0.000;0.000;2022-11-15T05:53:58;15.60;64.70
58993;DHT22;44782;0.000;0.000;2022-11-15T05:56:16;15.60;64.60
58993;DHT22;44782;0.000;0.000;2022-11-15T05:58:32;15.60;64.70
58993;DHT22;44782;0.000;0.000;2022-11-15T06:00:48;15.60;64.60
58993;DHT22;44782;0.000;0.000;2022-11-15T06:03:04;15.60;64.60
58993;DHT22;44782;0.000;0.000;2022-11-15T06:05:19;15.60;64.60
58993;DHT22;44782;0.000;0.000;2022-11-15T06:07:35;15.60;64.60
58993;DHT22;44782;0.000;0.000;2022-11-15T06:09:50;15.70;64.60
58993;DHT22;44782;0.000;0.000;2022-11-15T06:12:06;15.70;64.60
58993;DHT22;44782;0.000;0.000;2022-11-15T06:14:22;15.70;64.60
58993;DHT22;44782;0.000;0.000;2022-11-15T06:16:37;15.70;64.60
58993;DHT22;44782;0.000;0.000;2022-11-15T06:18:53;15.70;64.60
58993;DHT22;44782;0.000;0.000;2022-11-15T06:21:08;15.70;64.60
58993;DHT22;44782;0.000;0.000;2022-11-15T06:23:24;15.70;64.50
58993;DHT22;44782;0.000;0.000;2022-11-15T06:25:40;15.70;64.40
58993;DHT22;44782;0.000;0.000;2022-11-15T06:27:57;15.80;64.40
58993;DHT22;44782;0.000;0.000;2022-11-15T06:30:13;15.70;64.30
58993;DHT22;44782;0.000;0.000;2022-11-15T06:32:29;15.80;64.40
58993;DHT22;44782;0.000;0.000;2022-11-15T06:34:45;15.80;64.30
58993;DHT22;44782;0.000;0.000;2022-11-15T06:37:02;15.80;64.30
58993;DHT22;44782;0.000;0.000;2022-11-15T06:39:17;15.80;64.30
58993;DHT22;44782;0.000;0.000;2022-11-15T06:41:36;15.80;64.20
58993;DHT22;44782;0.000;0.000;2022-11-15T06:43:51;15.90;64.20
58993;DHT22;44782;0.000;0.000;2022-11-15T06:46:07;15.90;64.20
58993;DHT22;44782;0.000;0.000;2022-11-15T06:48:23;15.90;64.20
58993;DHT22;44782;0.000;0.000;2022-11-15T06:50:39;15.90;64.10
58993;DHT22;44782;0.000;0.000;2022-11-15T06:52:54;15.90;64.10
58993;DHT22;44782;0.000;0.000;2022-11-15T06:55:10;15.90;64.00
58993;DHT22;44782;0.000;0.000;2022-11-15T06:57:26;15.90;64.00
58993;DHT22;44782;0.000;0.000;2022-11-15T06:59:41;15.90;63.90
58993;DHT22;44782;0.000;0.000;2022-11-15T07:01:57;15.90;63.90
58993;DHT22;44782;0.000;0.000;2022-11-15T07:04:12;15.90;63.90
58993;DHT22;44782;0.000;0.000;2022-11-15T07:06:28;15.90;63.90
58993;DHT22;44782;0.000;0.000;2022-11-15T07:08:44;16.00;63.80
58993;DHT22;44782;0.000;0.000;2022-11-15T07:11:03;16.00;63.80
58993;DHT22;44782;0.000;0.000;2022-11-15T07:13:19;16.00;63.80
58993;DHT22;44782;0.000;0.000;2022-11-15T07:15:35;15.90;63.80
58993;DHT22;44782;0.000;0.000;2022-11-15T07:17:51;16.00;63.80
58993;DHT22;44782;0.000;0.000;2022-11-15T07:20:07;15.90;63.70
58993;DHT22;44782;0.000;0.000;2022-11-15T07:22:22;16.00;63.80
58993;DHT22;44782;0.000;0.000;2022-11-15T07:24:38;16.00;63.70
58993;DHT22;44782;0.000;0.000;2022-11-15T07:26:53;16.00;63.70
58993;DHT22;44782;0.000;0.000;2022-11-15T07:29:09;15.90;63.70
58993;DHT22;44782;0.000;0.000;2022-11-15T07:31:25;15.90;63.60
58993;DHT22;44782;0.000;0.000;2022-11-15T07:33:40;15.90;63.60
58993;DHT22;44782;0.000;0.000;2022-11-15T07:36:02;16.00;63.70
58993;DHT22;44782;0.000;0.000;2022-11-15T07:38:18;16.00;63.60
58993;DHT22;44782;0.000;0.000;2022-11-15T07:40:34;15.90;63.60
58993;DHT22;44782;0.000;0.000;2022-11-15T07:42:50;16.00;63.70
58993;DHT22;44782;0.000;0.000;2022-11-15T07:45:09;15.90;63.60
58993;DHT22;44782;0.000;0.000;2022-11-15T07:47:24;16.00;63.60
58993;DHT22;44782;0.000;0.000;2022-11-15T07:49:40;15.90;63.60
58993;DHT22;44782;0.000;0.000;2022-11-15T07:51:55;15.90;63.60
58993;DHT22;44782;0.000;0.000;2022-11-15T07:54:11;15.90;63.60
58993;DHT22;44782;0.000;0.000;2022-11-15T07:56:27;15.90;63.60
58993;DHT22;44782;0.000;0.000;2022-11-15T07:58:42;15.90;63.60
58993;DHT22;44782;0.000;0.000;2022-11-15T08:01:04;15.90;63.60
58993;DHT22;44782;0.000;0.000;2022-11-15T08:03:20;15.90;63.60
58993;DHT22;44782;0.000;0.000;2022-11-15T08:05:36;15.90;63.60
58993;DHT22;44782;0.000;0.000;2022-11-15T08:07:52;15.90;63.70
58993;DHT22;44782;0.000;0.000;2022-11-15T08:10:10;15.90;63.60
58993;DHT22;44782;0.000;0.000;2022-11-15T08:12:28;15.90;63.60
58993;DHT22;44782;0.000;0.000;2022-11-15T08:14:44;15.90;63.60
58993;DHT22;44782;0.000;0.000;2022-11-15T08:16:59;15.90;63.60
58993;DHT22;44782;0.000;0.000;2022-11-15T08:19:15;15.90;63.70
58993;DHT22;44782;0.000;0.000;2022-11-15T08:21:31;15.90;63.70
58993;DHT22;44782;0.000;0.000;2022-11-15T08:23:46;15.90;63.70
58993;DHT22;44782;0.000;0.000;2022-11-15T08:26:03;15.80;63.60
58993;DHT22;44782;0.000;0.000;2022-11-15T08:28:19;15.80;63.60
58993;DHT22;44782;0.000;0.000;2022-11-15T08:30:36;15.80;63.60
58993;DHT22;44782;0.000;0.000;2022-11-15T08:32:53;15.80;63.60
58993;DHT22;44782;0.000;0.000;2022-11-15T08:35:11;15.80;63.60
58993;DHT22;44782;0.000;0.000;2022-11-15T08:37:26;15.70;63.60
58993;DHT22;44782;0.000;0.000;2022-11-15T08:39:42;15.80;63.70
58993;DHT22;44782;0.000;0.000;2022-11-15T08:41:58;15.80;63.80
58993;DHT22;44782;0.000;0.000;2022-11-15T08:44:13;15.80;63.70
58993;DHT22;44782;0.000;0.000;2022-11-15T08:46:29;15.80;63.70
58993;DHT22;44782;0.000;0.000;2022-11-15T08:48:45;15.70;63.70
58993;DHT22;44782;0.000;0.000;2022-11-15T08:51:00;15.80;63.70
58993;DHT22;44782;0.000;0.000;2022-11-15T08:53:16;15.80;63.70
58993;DHT22;44782;0.000;0.000;2022-11-15T08:55:31;15.70;63.70
58993;DHT22;44782;0.000;0.000;2022-11-15T08:57:47;15.70;63.80
58993;DHT22;44782;0.000;0.000;2022-11-15T09:00:03;15.70;63.70
58993;DHT22;44782;0.000;0.000;2022-11-15T09:02:19;15.70;63.70
58993;DHT22;44782;0.000;0.000;2022-11-15T09:04:34;15.70;63.80
58993;DHT22;44782;0.000;0.000;2022-11-15T09:06:50;15.70;63.70
58993;DHT22;44782;0.000;0.000;2022-11-15T09:09:06;15.70;63.70
58993;DHT22;44782;0.000;0.000;2022-11-15T09:11:21;15.70;63.80
58993;DHT22;44782;0.000;0.000;2022-11-15T09:13:38;15.70;63.80
58993;DHT22;44782;0.000;0.000;2022-11-15T09:15:57;15.70;63.80
58993;DHT22;44782;0.000;0.000;2022-11-15T09:18:14;15.70;63.80
58993;DHT22;44782;0.000;0.000;2022-11-15T09:20:29;15.70;63.80
58993;DHT22;44782;0.000;0.000;2022-11-15T09:22:45;15.70;63.90
58993;DHT22;44782;0.000;0.000;2022-11-15T09:25:00;15.70;63.80
58993;DHT22;44782;0.000;0.000;2022-11-15T09:27:16;15.70;63.80
58993;DHT22;44782;0.000;0.000;2022-11-15T09:29:32;15.60;63.80
58993;DHT22;44782;0.000;0.000;2022-11-15T09:31:47;15.70;63.90
58993;DHT22;44782;0.000;0.000;2022-11-15T09:34:03;15.60;63.80
58993;DHT22;44782;0.000;0.000;2022-11-15T09:36:18;15.60;63.80
58993;DHT22;44782;0.000;0.000;2022-11-15T09:38:34;15.60;63.90
58993;DHT22;44782;0.000;0.000;2022-11-15T09:40:57;15.60;63.80
58993;DHT22;44782;0.000;0.000;2022-11-15T09:50:54;15.60;63.90
58993;DHT22;44782;0.000;0.000;2022-11-15T09:56:27;15.60;63.90
58993;DHT22;44782;0.000;0.000;2022-11-15T10:01:36;15.50;63.80
58993;DHT22;44782;0.000;0.000;2022-11-15T10:03:56;15.50;63.90
58993;DHT22;44782;0.000;0.000;2022-11-15T10:06:25;15.50;64.00
58993;DHT22;44782;0.000;0.000;2022-11-15T10:09:01;15.50;63.90
58993;DHT22;44782;0.000;0.000;2022-11-15T10:11:25;15.50;63.90
58993;DHT22;44782;0.000;0.000;2022-11-15T10:13:43;15.40;63.90
58993;DHT22;44782;0.000;0.000;2022-11-15T10:19:07;15.50;64.10
58993;DHT22;44782;0.000;0.000;2022-11-15T10:23:59;15.50;64.10
58993;DHT22;44782;0.000;0.000;2022-11-15T10:26:16;15.50;64.20
58993;DHT22;44782;0.000;0.000;2022-11-15T10:28:32;15.50;64.20
58993;DHT22;44782;0.000;0.000;2022-11-15T10:30:51;15.40;64.10
58993;DHT22;44782;0.000;0.000;2022-11-15T10:33:33;15.40;64.40
58993;DHT22;44782;0.000;0.000;2022-11-15T10:38:28;15.40;64.10
58993;DHT22;44782;0.000;0.000;2022-11-15T10:40:44;15.40;64.20
58993;DHT22;44782;0.000;0.000;2022-11-15T10:45:30;15.40;64.10
58993;DHT22;44782;0.000;0.000;2022-11-15T10:47:45;15.40;64.20
58993;DHT22;44782;0.000;0.000;2022-11-15T10:50:07;15.40;64.20
58993;DHT22;44782;0.000;0.000;2022-11-15T10:52:45;15.40;64.20
58993;DHT22;44782;0.000;0.000;2022-11-15T10:57:37;15.40;64.20
58993;DHT22;44782;0.000;0.000;2022-11-15T10:59:59;15.40;64.20
58993;DHT22;44782;0.000;0.000;2022-11-15T11:02:38;15.40;64.30
58993;DHT22;44782;0.000;0.000;2022-11-15T11:04:54;15.40;64.20
58993;DHT22;44782;0.000;0.000;2022-11-15T11:09:37;15.40;64.30
58993;DHT22;44782;0.000;0.000;2022-11-15T11:11:53;15.40;64.40
58993;DHT22;44782;0.000;0.000;2022-11-15T11:14:17;15.40;64.30
58993;DHT22;44782;0.000;0.000;2022-11-15T11:16:46;15.40;64.30
58993;DHT22;44782;0.000;0.000;2022-11-15T11:21:49;15.50;64.30
58993;DHT22;44782;0.000;0.000;2022-11-15T11:27:29;15.50;64.20
58993;DHT22;44782;0.000;0.000;2022-11-15T11:35:19;15.60;64.20
58993;DHT22;44782;0.000;0.000;2022-11-15T11:40:22;15.60;64.20
58993;DHT22;44782;0.000;0.000;2022-11-15T11:47:31;15.70;64.10
58993;DHT22;44782;0.000;0.000;2022-11-15T11:50:34;15.70;64.10
58993;DHT22;44782;0.000;0.000;2022-11-15T11:52:35;15.70;64.10
58993;DHT22;44782;0.000;0.000;2022-11-15T11:57:40;15.70;64.00
58993;DHT22;44782;0.000;0.000;2022-11-15T12:00:25;15.80;63.90
58993;DHT22;44782;0.000;0.000;2022-11-15T12:02:47;15.80;63.80
58993;DHT22;44782;0.000;0.000;2022-11-15T12:05:35;15.80;63.90
58993;DHT22;44782;0.000;0.000;2022-11-15T12:07:57;15.80;63.70
58993;DHT22;44782;0.000;0.000;2022-11-15T12:10:24;15.80;63.80
58993;DHT22;44782;0.000;0.000;2022-11-15T12:12:47;15.90;63.80
58993;DHT22;44782;0.000;0.000;2022-11-15T12:17:26;15.90;63.80
58993;DHT22;44782;0.000;0.000;2022-11-15T12:19:47;15.90;63.90
58993;DHT22;44782;0.000;0.000;2022-11-15T12:24:49;16.00;64.60
58993;DHT22;44782;0.000;0.000;2022-11-15T12:30:14;16.10;66.00
58993;DHT22;44782;0.000;0.000;2022-11-15T12:34:51;16.20;66.10
58993;DHT22;44782;0.000;0.000;2022-11-15T12:37:59;16.20;66.00
58993;DHT22;44782;0.000;0.000;2022-11-15T12:40:22;16.20;66.20
58993;DHT22;44782;0.000;0.000;2022-11-15T12:42:44;16.30;66.00
58993;DHT22;44782;0.000;0.000;2022-11-15T12:45:28;16.30;66.00
58993;DHT22;44782;0.000;0.000;2022-11-15T12:47:45;16.40;66.00
58993;DHT22;44782;0.000;0.000;2022-11-15T12:50:00;16.40;65.70
58993;DHT22;44782;0.000;0.000;2022-11-15T12:52:16;16.40;65.50
58993;DHT22;44782;0.000;0.000;2022-11-15T13:04:48;16.50;65.10
58993;DHT22;44782;0.000;0.000;2022-11-15T13:07:05;16.40;65.10
58993;DHT22;44782;0.000;0.000;2022-11-15T13:11:53;16.50;65.00
58993;DHT22;44782;0.000;0.000;2022-11-15T13:16:58;16.50;64.80
58993;DHT22;44782;0.000;0.000;2022-11-15T13:19:14;16.50;64.90
58993;DHT22;44782;0.000;0.000;2022-11-15T13:21:30;16.40;64.70
58993;DHT22;44782;0.000;0.000;2022-11-15T13:24:09;16.40;64.70
58993;DHT22;44782;0.000;0.000;2022-11-15T13:26:25;16.40;64.70
58993;DHT22;44782;0.000;0.000;2022-11-15T13:30:59;16.40;64.70
58993;DHT22;44782;0.000;0.000;2022-11-15T13:35:39;16.40;64.60
58993;DHT22;44782;0.000;0.000;2022-11-15T13:37:56;16.40;64.60
58993;DHT22;44782;0.000;0.000;2022-11-15T13:40:25;16.40;64.60
58993;DHT22;44782;0.000;0.000;2022-11-15T13:42:42;16.40;64.60
58993;DHT22;44782;0.000;0.000;2022-11-15T13:45:02;16.40;65.40
58993;DHT22;44782;0.000;0.000;2022-11-15T13:47:19;16.40;64.60
58993;DHT22;44782;0.000;0.000;2022-11-15T13:49:35;16.40;64.60
58993;DHT22;44782;0.000;0.000;2022-11-15T13:51:53;16.30;64.60
58993;DHT22;44782;0.000;0.000;2022-11-15T13:56:29;16.30;64.50
58993;DHT22;44782;0.000;0.000;2022-11-15T13:58:47;16.30;64.60
58993;DHT22;44782;0.000;0.000;2022-11-15T14:01:04;16.30;64.60
58993;DHT22;44782;0.000;0.000;2022-11-15T14:03:26;16.30;64.60
58993;DHT22;44782;0.000;0.000;2022-11-15T14:05:43;16.30;64.60
58993;DHT22;44782;0.000;0.000;2022-11-15T14:10:33;16.30;64.60
58993;DHT22;44782;0.000;0.000;2022-11-15T14:12:52;16.30;64.60
58993;DHT22;44782;0.000;0.000;2022-11-15T14:15:31;16.30;64.60
58993;DHT22;44782;0.000;0.000;2022-11-15T14:17:47;16.20;64.50
58993;DHT22;44782;0.000;0.000;2022-11-15T14:20:24;16.20;64.60
58993;DHT22;44782;0.000;0.000;2022-11-15T14:22:55;16.20;64.50
58993;DHT22;44782;0.000;0.000;2022-11-15T14:25:18;16.20;64.60
58993;DHT22;44782;0.000;0.000;2022-11-15T14:27:34;16.20;64.70
58993;DHT22;44782;0.000;0.000;2022-11-15T14:29:50;16.20;64.60
58993;DHT22;44782;0.000;0.000;2022-11-15T14:32:13;16.20;64.70
58993;DHT22;44782;0.000;0.000;2022-11-15T14:34:31;16.20;64.70
58993;DHT22;44782;0.000;0.000;2022-11-15T14:36:48;16.20;64.70
58993;DHT22;44782;0.000;0.000;2022-11-15T14:39:03;16.20;64.70
58993;DHT22;44782;0.000;0.000;2022-11-15T14:41:24;16.10;64.70
58993;DHT22;44782;0.000;0.000;2022-11-15T14:43:41;16.10;64.70
58993;DHT22;44782;0.000;0.000;2022-11-15T14:45:57;16.10;64.70
58993;DHT22;44782;0.000;0.000;2022-11-15T14:48:13;16.10;64.70
58993;DHT22;44782;0.000;0.000;2022-11-15T14:50:28;16.10;64.70
58993;DHT22;44782;0.000;0.000;2022-11-15T14:52:44;16.10;64.70
58993;DHT22;44782;0.000;0.000;2022-11-15T14:55:02;16.10;64.70
58993;DHT22;44782;0.000;0.000;2022-11-15T14:57:18;16.10;64.70
58993;DHT22;44782;0.000;0.000;2022-11-15T14:59:33;16.10;64.80
58993;DHT22;44782;0.000;0.000;2022-11-15T15:01:49;16.10;64.80
58993;DHT22;44782;0.000;0.000;2022-11-15T15:04:04;16.10;64.80
58993;DHT22;44782;0.000;0.000;2022-11-15T15:06:20;16.00;64.80
58993;DHT22;44782;0.000;0.000;2022-11-15T15:08:36;16.00;64.80
58993;DHT22;44782;0.000;0.000;2022-11-15T15:10:51;16.00;64.80
58993;DHT22;44782;0.000;0.000;2022-11-15T15:13:19;16.00;64.80
58993;DHT22;44782;0.000;0.000;2022-11-15T15:15:37;16.00;64.80
58993;DHT22;44782;0.000;0.000;2022-11-15T15:17:53;15.90;64.80
58993;DHT22;44782;0.000;0.000;2022-11-15T15:20:09;16.00;64.90
58993;DHT22;44782;0.000;0.000;2022-11-15T15:22:26;16.00;64.80
58993;DHT22;44782;0.000;0.000;2022-11-15T15:24:44;15.90;64.80
58993;DHT22;44782;0.000;0.000;2022-11-15T15:27:00;15.90;64.80
58993;DHT22;44782;0.000;0.000;2022-11-15T15:29:16;15.90;64.90
58993;DHT22;44782;0.000;0.000;2022-11-15T15:31:31;15.90;64.90
58993;DHT22;44782;0.000;0.000;2022-11-15T15:33:48;15.90;64.90
58993;DHT22;44782;0.000;0.000;2022-11-15T15:36:04;15.90;65.70
58993;DHT22;44782;0.000;0.000;2022-11-15T15:38:20;15.90;64.90
58993;DHT22;44782;0.000;0.000;2022-11-15T15:40:36;15.90;64.90
58993;DHT22;44782;0.000;0.000;2022-11-15T15:42:52;15.90;65.00
58993;DHT22;44782;0.000;0.000;2022-11-15T15:45:08;15.90;65.00
58993;DHT22;44782;0.000;0.000;2022-11-15T15:47:25;15.90;65.00
58993;DHT22;44782;0.000;0.000;2022-11-15T15:49:41;15.90;65.10
58993;DHT22;44782;0.000;0.000;2022-11-15T15:51:57;15.90;65.10
58993;DHT22;44782;0.000;0.000;2022-11-15T15:54:12;15.80;65.00
58993;DHT22;44782;0.000;0.000;2022-11-15T15:56:28;15.80;65.00
58993;DHT22;44782;0.000;0.000;2022-11-15T15:58:44;15.80;65.00
58993;DHT22;44782;0.000;0.000;2022-11-15T16:00:59;15.80;65.00
58993;DHT22;44782;0.000;0.000;2022-11-15T16:03:15;15.80;65.00
58993;DHT22;44782;0.000;0.000;2022-11-15T16:05:30;15.80;65.10
58993;DHT22;44782;0.000;0.000;2022-11-15T16:07:46;15.80;65.20
58993;DHT22;44782;0.000;0.000;2022-11-15T16:10:16;15.80;65.10
58993;DHT22;44782;0.000;0.000;2022-11-15T16:12:34;15.80;65.10
58993;DHT22;44782;0.000;0.000;2022-11-15T16:14:50;15.80;65.20
58993;DHT22;44782;0.000;0.000;2022-11-15T16:17:05;15.70;65.10
58993;DHT22;44782;0.000;0.000;2022-11-15T16:19:21;15.70;65.10
58993;DHT22;44782;0.000;0.000;2022-11-15T16:21:37;15.80;65.20
58993;DHT22;44782;0.000;0.000;2022-11-15T16:23:52;15.70;65.20
58993;DHT22;44782;0.000;0.000;2022-11-15T16:26:21;15.70;65.20
58993;DHT22;44782;0.000;0.000;2022-11-15T16:28:37;15.70;65.20
58993;DHT22;44782;0.000;0.000;2022-11-15T16:31:09;15.70;65.20
58993;DHT22;44782;0.000;0.000;2022-11-15T16:33:25;15.70;65.20
58993;DHT22;44782;0.000;0.000;2022-11-15T16:35:41;15.70;65.30
58993;DHT22;44782;0.000;0.000;2022-11-15T16:37:57;15.70;65.30
58993;DHT22;44782;0.000;0.000;2022-11-15T16:40:32;15.70;65.30